Time;durP1;ratioP1;P1;durP2;ratioP2;P2;SDS_P1;SDS_P2;PMS_P1;PMS_P2;Temp;Humidity;BMP_temperature;BMP_pressure;BME280_temperature;BME280_humidity;BME280_pressure;Samples;Min_cycle;Max_cycle;Signal;HPM_P1;HPM_P2
2023/05/23 00:00:25;;;;;;;55.13;27.20;;;18.60;83.10;;;;;;5022285;28;20192;-76
2023/05/23 00:02:51;;;;;;;59.10;26.93;;;18.60;83.60;;;;;;5016082;28;20373;-76
2023/05/23 00:05:17;;;;;;;58.73;29.00;;;18.60;83.80;;;;;;5029452;28;20181;-78
2023/05/23 00:07:45;;;;;;;66.07;28.00;;;18.50;84.40;;;;;;5019560;28;21059;-76
2023/05/23 00:10:12;;;;;;;64.33;29.70;;;18.50;84.30;;;;;;5036606;28;20203;-76
2023/05/23 00:12:41;;;;;;;58.87;28.97;;;18.50;84.40;;;;;;5025930;28;20872;-75
2023/05/23 00:15:08;;;;;;;64.57;31.47;;;18.50;84.70;;;;;;5031092;28;20809;-75
2023/05/23 00:17:38;;;;;;;67.47;30.77;;;18.50;84.70;;;;;;5014086;28;20478;-77
2023/05/23 00:20:10;;;;;;;72.27;32.50;;;18.50;85.00;;;;;;5024314;28;20453;-75
2023/05/23 00:22:41;;;;;;;70.17;31.43;;;18.50;85.00;;;;;;5027758;28;20433;-77
2023/05/23 00:25:10;;;;;;;64.60;31.80;;;18.40;85.20;;;;;;5024977;28;20455;-76
2023/05/23 00:27:36;;;;;;;63.10;30.53;;;18.40;85.30;;;;;;5011117;28;21047;-76
2023/05/23 00:30:02;;;;;;;77.67;34.47;;;18.40;85.60;;;;;;5011484;28;20423;-76
2023/05/23 00:32:27;;;;;;;78.33;36.17;;;18.30;85.70;;;;;;5019777;28;20210;-76
2023/05/23 00:34:54;;;;;;;66.00;31.37;;;18.30;86.00;;;;;;5018691;28;20426;-76
2023/05/23 00:37:21;;;;;;;75.97;34.27;;;18.20;86.30;;;;;;5013303;28;20209;-76
2023/05/23 00:39:47;;;;;;;76.10;33.37;;;18.30;86.20;;;;;;5008496;28;20576;-74
2023/05/23 00:42:13;;;;;;;72.13;34.73;;;18.40;86.00;;;;;;5018347;28;20424;-76
2023/05/23 00:44:38;;;;;;;77.70;36.70;;;18.40;85.70;;;;;;5023027;28;20430;-75
2023/05/23 00:47:06;;;;;;;87.70;37.40;;;18.30;86.20;;;;;;5012822;28;20687;-76
2023/05/23 00:49:32;;;;;;;81.20;37.87;;;18.20;86.50;;;;;;5012909;28;20190;-76
2023/05/23 00:51:59;;;;;;;72.33;32.90;;;18.30;86.50;;;;;;5015239;28;20462;-76
2023/05/23 00:54:29;;;;;;;78.33;34.10;;;18.40;86.00;;;;;;5016186;28;20664;-76
2023/05/23 00:56:55;;;;;;;89.30;37.97;;;18.50;85.70;;;;;;5012186;28;20460;-76
2023/05/23 00:59:25;;;;;;;79.20;35.60;;;18.40;85.90;;;;;;5016245;28;20434;-75
2023/05/23 01:01:53;;;;;;;71.13;34.30;;;18.40;86.00;;;;;;5022624;28;20423;-77
2023/05/23 01:04:19;;;;;;;76.23;35.03;;;18.50;85.70;;;;;;5015502;28;20439;-75
2023/05/23 01:06:45;;;;;;;84.97;36.93;;;18.60;85.50;;;;;;5015862;28;21309;-76
2023/05/23 01:09:22;;;;;;;91.97;41.90;;;18.70;85.00;;;;;;5017280;28;20438;-77
2023/05/23 01:12:22;;;;;;;84.93;39.40;;;18.50;85.00;;;;;;5023751;28;20436;-76
2023/05/23 01:14:52;;;;;;;95.20;39.80;;;18.30;85.90;;;;;;5001292;28;20461;-76
2023/05/23 01:17:27;;;;;;;78.77;38.40;;;18.30;86.20;;;;;;5008379;28;20457;-75
2023/05/23 01:20:09;;;;;;;81.70;38.40;;;18.40;86.30;;;;;;5018147;28;20504;-75
2023/05/23 01:23:00;;;;;;;87.20;38.57;;;18.40;85.90;;;;;;5011680;28;20511;-74
2023/05/23 01:25:58;;;;;;;93.67;37.60;;;18.30;86.20;;;;;;5019145;28;20425;-75
2023/05/23 01:28:27;;;;;;;98.07;40.87;;;18.50;86.20;;;;;;5018161;28;20474;-75
2023/05/23 01:30:56;;;;;;;88.97;38.63;;;18.40;85.70;;;;;;5025443;28;20439;-76
2023/05/23 01:33:24;;;;;;;97.70;41.83;;;18.40;86.20;;;;;;5022754;28;21014;-76
2023/05/23 01:35:50;;;;;;;91.13;40.77;;;18.40;85.90;;;;;;5024438;28;20996;-76
2023/05/23 01:38:15;;;;;;;95.53;41.30;;;18.30;86.20;;;;;;5016136;28;20465;-76
2023/05/23 01:40:41;;;;;;;106.33;43.17;;;18.30;86.30;;;;;;5023176;28;20674;-75
2023/05/23 01:43:07;;;;;;;101.23;42.93;;;18.30;86.20;;;;;;5019665;28;20656;-76
2023/05/23 01:45:33;;;;;;;100.40;46.90;;;18.20;86.60;;;;;;5030189;28;20191;-76
2023/05/23 01:47:59;;;;;;;95.40;42.63;;;18.20;86.30;;;;;;5022987;28;20208;-77
2023/05/23 01:50:25;;;;;;;91.43;40.23;;;18.10;87.00;;;;;;5034634;28;20187;-77
2023/05/23 01:52:52;;;;;;;100.00;45.43;;;18.10;86.90;;;;;;5028853;28;20988;-77
2023/05/23 01:55:23;;;;;;;94.67;40.10;;;18.10;86.80;;;;;;5036473;28;20421;-77
2023/05/23 01:57:55;;;;;;;100.20;44.20;;;18.20;86.80;;;;;;5025867;28;20454;-75
2023/05/23 02:00:22;;;;;;;102.53;41.90;;;18.20;86.50;;;;;;5033726;28;20414;-75
2023/05/23 02:02:47;;;;;;;101.87;44.50;;;18.20;86.30;;;;;;5026871;28;20498;-75
2023/05/23 02:05:13;;;;;;;109.80;46.30;;;18.20;86.20;;;;;;5017048;28;20583;-76
2023/05/23 02:07:38;;;;;;;124.23;47.37;;;18.00;86.60;;;;;;5010922;28;20226;-77
2023/05/23 02:10:07;;;;;;;99.83;47.83;;;17.90;87.30;;;;;;5014333;28;20204;-76
2023/05/23 02:12:33;;;;;;;114.23;48.40;;;17.90;87.40;;;;;;5011236;28;20225;-75
2023/05/23 02:14:59;;;;;;;120.00;47.70;;;18.00;87.10;;;;;;5014788;28;20785;-76
2023/05/23 02:17:25;;;;;;;111.73;45.70;;;17.90;87.30;;;;;;5006093;28;20210;-76
2023/05/23 02:19:50;;;;;;;104.10;43.50;;;18.00;87.30;;;;;;5014882;28;20252;-76
2023/05/23 02:22:16;;;;;;;108.10;46.77;;;17.90;87.10;;;;;;5013010;28;20444;-76
2023/05/23 02:24:42;;;;;;;110.03;45.37;;;17.90;87.10;;;;;;5018295;28;20216;-77
2023/05/23 02:27:07;;;;;;;107.67;46.50;;;17.90;87.30;;;;;;5010293;28;20209;-77
2023/05/23 02:29:33;;;;;;;112.70;47.00;;;17.80;87.40;;;;;;5016431;28;20869;-77
2023/05/23 02:31:59;;;;;;;114.37;49.40;;;17.90;87.60;;;;;;5017463;28;20660;-75
2023/05/23 02:34:25;;;;;;;117.03;48.73;;;17.80;87.60;;;;;;5017352;28;20995;-76
2023/05/23 02:36:50;;;;;;;135.37;52.23;;;17.80;87.60;;;;;;5013040;28;20213;-75
2023/05/23 02:39:16;;;;;;;113.20;51.50;;;17.70;87.70;;;;;;5015621;28;20205;-76
2023/05/23 02:41:42;;;;;;;110.33;46.63;;;17.70;88.00;;;;;;5015144;28;20186;-77
2023/05/23 02:44:07;;;;;;;123.63;53.63;;;17.70;87.80;;;;;;5019885;28;20561;-77
2023/05/23 02:46:33;;;;;;;115.60;47.63;;;17.70;87.70;;;;;;5002032;28;20207;-76
2023/05/23 02:48:59;;;;;;;108.30;48.77;;;17.70;88.00;;;;;;5016016;28;20192;-76
2023/05/23 02:51:25;;;;;;;104.20;44.10;;;17.70;88.10;;;;;;5007398;28;20276;-75
2023/05/23 02:53:50;;;;;;;127.13;50.77;;;17.70;88.00;;;;;;5016587;28;20217;-75
2023/05/23 02:56:16;;;;;;;114.90;51.40;;;17.70;87.80;;;;;;5002930;28;20286;-77
2023/05/23 02:58:41;;;;;;;127.90;50.60;;;17.70;87.80;;;;;;5013597;28;20193;-77
2023/05/23 03:01:07;;;;;;;116.60;48.30;;;17.70;87.80;;;;;;5011771;28;20200;-76
2023/05/23 03:03:33;;;;;;;113.10;49.60;;;17.80;87.80;;;;;;5016506;28;20317;-76
2023/05/23 03:05:59;;;;;;;111.67;49.50;;;17.80;87.70;;;;;;5011807;28;20735;-75
2023/05/23 03:08:25;;;;;;;109.37;49.67;;;17.80;87.40;;;;;;5013179;28;20562;-75
2023/05/23 03:10:51;;;;;;;124.83;49.73;;;17.80;87.10;;;;;;5010130;28;20457;-76
2023/05/23 03:13:17;;;;;;;111.43;47.00;;;17.80;87.40;;;;;;5019652;28;20217;-76
2023/05/23 03:15:43;;;;;;;105.37;47.93;;;17.90;87.10;;;;;;5013329;28;20474;-75
2023/05/23 03:18:09;;;;;;;112.67;48.50;;;17.90;86.90;;;;;;5005860;28;20522;-77
2023/05/23 03:20:35;;;;;;;125.30;52.27;;;17.80;86.80;;;;;;5013153;28;20274;-76
2023/05/23 03:23:01;;;;;;;96.33;44.37;;;17.80;87.10;;;;;;5020655;28;20902;-75
2023/05/23 03:25:26;;;;;;;119.00;49.60;;;17.90;86.90;;;;;;5013593;28;20629;-75
2023/05/23 03:27:52;;;;;;;102.00;48.37;;;17.80;86.80;;;;;;5018828;28;20595;-76
2023/05/23 03:30:19;;;;;;;93.17;43.60;;;17.70;87.40;;;;;;5020228;28;20198;-76
2023/05/23 03:32:46;;;;;;;100.87;48.27;;;17.70;87.40;;;;;;5019677;28;20240;-75
2023/05/23 03:35:12;;;;;;;87.03;43.30;;;17.80;87.00;;;;;;5018076;28;20448;-75
2023/05/23 03:37:37;;;;;;;94.33;45.20;;;17.80;87.00;;;;;;5019199;28;20469;-75
2023/05/23 03:40:03;;;;;;;96.83;42.13;;;17.90;86.80;;;;;;5018200;28;20185;-76
2023/05/23 03:42:29;;;;;;;90.93;40.03;;;17.90;86.60;;;;;;5018298;28;20714;-77
2023/05/23 03:44:55;;;;;;;90.20;42.40;;;17.90;86.30;;;;;;5025540;28;20429;-78
2023/05/23 03:47:23;;;;;;;85.43;40.20;;;17.80;86.30;;;;;;5017142;28;20495;-76
2023/05/23 03:49:48;;;;;;;103.87;45.43;;;17.90;86.50;;;;;;5023123;28;20447;-75
2023/05/23 03:52:14;;;;;;;100.97;45.40;;;17.80;86.50;;;;;;5014645;28;20464;-76
2023/05/23 03:54:40;;;;;;;89.67;42.83;;;17.80;86.90;;;;;;5023248;28;20187;-77
2023/05/23 03:57:06;;;;;;;89.50;41.20;;;17.80;86.90;;;;;;5018063;28;20953;-74
2023/05/23 03:59:32;;;;;;;103.37;46.50;;;17.90;86.60;;;;;;5020490;28;20433;-77
2023/05/23 04:01:59;;;;;;;89.63;42.97;;;17.90;86.20;;;;;;5030605;28;20432;-78
2023/05/23 04:04:26;;;;;;;94.43;42.53;;;17.90;86.20;;;;;;5032690;28;20253;-76
2023/05/23 04:06:51;;;;;;;96.70;43.33;;;17.90;86.30;;;;;;5022894;28;20458;-75
2023/05/23 04:09:17;;;;;;;96.97;45.83;;;17.80;86.20;;;;;;5020547;28;20465;-77
2023/05/23 04:11:43;;;;;;;94.23;44.33;;;17.70;86.80;;;;;;5020377;28;20190;-79
2023/05/23 04:14:08;;;;;;;98.33;47.40;;;17.50;87.70;;;;;;5027789;28;20228;-76
2023/05/23 04:16:36;;;;;;;97.83;44.77;;;17.40;88.10;;;;;;5021688;28;20977;-76
2023/05/23 04:19:03;;;;;;;95.83;44.77;;;17.30;88.70;;;;;;5015496;28;20205;-75
2023/05/23 04:21:28;;;;;;;89.77;40.57;;;17.30;88.70;;;;;;5023403;28;20504;-76
2023/05/23 04:23:55;;;;;;;80.67;38.70;;;17.40;88.90;;;;;;5026842;28;20456;-77
2023/05/23 04:26:20;;;;;;;81.67;38.67;;;17.60;88.00;;;;;;5010742;28;20191;-76
2023/05/23 04:28:47;;;;;;;85.50;40.87;;;17.70;87.60;;;;;;5028194;28;20502;-76
2023/05/23 04:31:13;;;;;;;101.47;44.57;;;17.70;87.10;;;;;;5026624;28;20186;-77
2023/05/23 04:33:39;;;;;;;97.93;43.93;;;17.60;87.30;;;;;;5017202;28;20475;-77
2023/05/23 04:36:08;;;;;;;97.07;45.20;;;17.50;88.00;;;;;;5026791;28;20427;-76
2023/05/23 04:38:33;;;;;;;98.63;43.93;;;17.40;88.30;;;;;;5020157;28;20273;-77
2023/05/23 04:40:59;;;;;;;87.33;43.70;;;17.40;88.60;;;;;;5017459;28;20515;-76
2023/05/23 04:43:28;;;;;;;89.80;42.93;;;17.40;88.60;;;;;;5008824;28;20438;-75
2023/05/23 04:45:53;;;;;;;84.27;41.00;;;17.20;88.90;;;;;;5016146;28;20622;-77
2023/05/23 04:48:22;;;;;;;91.77;43.23;;;17.30;89.00;;;;;;5013558;28;20492;-71
2023/05/23 04:50:49;;;;;;;86.67;42.10;;;17.30;88.70;;;;;;5017498;28;20189;-74
2023/05/23 04:53:15;;;;;;;89.37;42.40;;;17.40;88.60;;;;;;5006605;28;20476;-71
2023/05/23 04:55:41;;;;;;;92.93;42.40;;;17.50;88.30;;;;;;5016301;28;20467;-71
2023/05/23 04:58:06;;;;;;;89.50;41.97;;;17.50;87.80;;;;;;5012627;28;20252;-71
2023/05/23 05:00:32;;;;;;;79.57;40.67;;;17.50;88.10;;;;;;5025629;28;20193;-73
2023/05/23 05:02:58;;;;;;;82.83;39.90;;;17.50;88.00;;;;;;5013028;28;20204;-71
2023/05/23 05:05:23;;;;;;;89.53;37.47;;;17.40;88.00;;;;;;5018292;28;20240;-71
2023/05/23 05:07:49;;;;;;;79.03;40.90;;;17.60;88.00;;;;;;5014279;28;20213;-72
2023/05/23 05:10:15;;;;;;;86.43;41.17;;;17.60;87.60;;;;;;5027961;28;20898;-74
2023/05/23 05:12:45;;;;;;;84.63;40.87;;;17.50;87.70;;;;;;5016696;28;20208;-75
2023/05/23 05:15:16;;;;;;;78.87;37.30;;;17.60;88.00;;;;;;5015126;28;20443;-73
2023/05/23 05:17:42;;;;;;;78.37;36.70;;;17.70;87.60;;;;;;5005767;28;20465;-75
2023/05/23 05:20:09;;;;;;;82.00;39.50;;;17.90;86.90;;;;;;4998945;28;20564;-77
2023/05/23 05:22:35;;;;;;;88.33;39.40;;;17.70;86.80;;;;;;5015759;28;20216;-74
2023/05/23 05:25:02;;;;;;;83.90;41.97;;;17.80;87.00;;;;;;5013736;28;20842;-76
2023/05/23 05:27:28;;;;;;;88.60;43.70;;;17.60;87.10;;;;;;5001151;28;20480;-78
2023/05/23 05:29:57;;;;;;;75.27;36.03;;;17.70;87.40;;;;;;5013804;28;20429;-76
2023/05/23 05:32:23;;;;;;;86.10;41.13;;;17.80;87.30;;;;;;5016407;28;20255;-75
2023/05/23 05:34:49;;;;;;;75.60;39.23;;;17.70;86.50;;;;;;5025694;28;20451;-78
2023/05/23 05:37:15;;;;;;;88.50;42.00;;;17.60;87.30;;;;;;5013268;28;20542;-76
2023/05/23 05:39:41;;;;;;;89.07;41.33;;;17.70;87.10;;;;;;5014843;28;20821;-77
2023/05/23 05:42:06;;;;;;;82.10;39.70;;;17.70;86.80;;;;;;5013677;28;20763;-76
2023/05/23 05:44:32;;;;;;;76.67;39.70;;;17.70;86.80;;;;;;5014944;28;20189;-76
2023/05/23 05:46:57;;;;;;;82.47;38.70;;;17.70;86.80;;;;;;5015355;28;20244;-76
2023/05/23 05:49:23;;;;;;;86.93;43.73;;;17.80;86.90;;;;;;5017895;28;20184;-75
2023/05/23 05:51:49;;;;;;;75.10;38.87;;;17.80;86.30;;;;;;5015366;28;20683;-74
2023/05/23 05:54:14;;;;;;;73.60;38.63;;;17.80;86.60;;;;;;5014939;28;20661;-76
2023/05/23 05:56:41;;;;;;;80.70;40.83;;;17.90;86.00;;;;;;5015250;28;20201;-77
2023/05/23 05:59:06;;;;;;;82.27;41.13;;;18.00;85.90;;;;;;5019565;28;20248;-75
2023/05/23 06:01:33;;;;;;;80.10;40.27;;;18.00;85.50;;;;;;5014512;28;20444;-76
2023/05/23 06:03:59;;;;;;;91.77;44.00;;;17.70;86.00;;;;;;5014185;28;20181;-74
2023/05/23 06:06:25;;;;;;;84.67;41.77;;;17.50;87.30;;;;;;5012102;28;20432;-75
2023/05/23 06:08:50;;;;;;;80.67;41.57;;;17.50;87.30;;;;;;5014527;28;20424;-74
2023/05/23 06:11:16;;;;;;;88.30;41.53;;;17.40;87.70;;;;;;5018097;28;20200;-75
2023/05/23 06:13:42;;;;;;;90.27;41.03;;;17.50;87.60;;;;;;5025108;28;20676;-76
2023/05/23 06:16:07;;;;;;;88.50;42.33;;;17.70;87.10;;;;;;4992888;28;20244;-77
2023/05/23 06:18:33;;;;;;;78.80;37.97;;;17.80;86.30;;;;;;5007611;28;20201;-76
2023/05/23 06:20:59;;;;;;;77.73;40.97;;;17.90;85.70;;;;;;5012497;28;20245;-75
2023/05/23 06:23:25;;;;;;;89.10;42.30;;;17.90;85.70;;;;;;5029115;28;20224;-75
2023/05/23 06:25:50;;;;;;;86.63;42.00;;;17.70;86.30;;;;;;5024347;28;20424;-77
2023/05/23 06:28:16;;;;;;;89.83;42.77;;;17.50;86.80;;;;;;5012669;28;20217;-76
2023/05/23 06:30:41;;;;;;;87.53;40.07;;;17.50;87.30;;;;;;5014128;28;20827;-74
2023/05/23 06:33:07;;;;;;;72.87;38.50;;;17.60;87.30;;;;;;5014724;28;20255;-75
2023/05/23 06:35:33;;;;;;;88.27;43.43;;;17.90;86.80;;;;;;5013975;28;20186;-76
2023/05/23 06:37:58;;;;;;;81.53;43.97;;;17.90;85.30;;;;;;5017576;28;20667;-76
2023/05/23 06:40:24;;;;;;;81.03;40.97;;;17.70;85.50;;;;;;5015857;28;20234;-76
2023/05/23 06:42:49;;;;;;;90.90;43.10;;;17.60;86.30;;;;;;5013259;28;20208;-76
2023/05/23 06:45:16;;;;;;;86.57;44.33;;;17.50;86.60;;;;;;5012619;28;20221;-75
2023/05/23 06:47:44;;;;;;;93.97;44.23;;;17.40;87.10;;;;;;5012379;28;20197;-76
2023/05/23 06:50:10;;;;;;;89.53;42.40;;;17.40;87.10;;;;;;5013038;28;20490;-74
2023/05/23 06:52:35;;;;;;;82.90;41.70;;;17.50;86.90;;;;;;5012948;28;20985;-74
2023/05/23 06:55:01;;;;;;;84.87;39.53;;;17.60;86.30;;;;;;5020013;28;20432;-74
2023/05/23 06:57:27;;;;;;;74.27;38.87;;;17.30;87.00;;;;;;5010547;28;20727;-75
2023/05/23 06:59:52;;;;;;;76.30;40.73;;;17.50;86.90;;;;;;5005594;28;20213;-76
2023/05/23 07:02:18;;;;;;;83.57;40.00;;;17.40;86.60;;;;;;5012661;28;20322;-75
2023/05/23 07:04:43;;;;;;;79.43;39.50;;;17.30;87.10;;;;;;5012855;28;20664;-74
2023/05/23 07:07:09;;;;;;;84.87;40.17;;;17.30;87.10;;;;;;5011720;28;20570;-77
2023/05/23 07:09:35;;;;;;;72.00;38.03;;;17.40;86.80;;;;;;5012703;28;20623;-75
2023/05/23 07:12:00;;;;;;;63.83;33.70;;;17.20;87.00;;;;;;5011331;28;20683;-74
2023/05/23 07:14:26;;;;;;;78.63;42.10;;;17.40;87.10;;;;;;5011230;28;20193;-76
2023/05/23 07:16:51;;;;;;;84.50;40.47;;;17.50;86.50;;;;;;5010963;28;20577;-75
2023/05/23 07:19:17;;;;;;;79.43;37.80;;;17.40;86.30;;;;;;5012946;28;20451;-75
2023/05/23 07:21:42;;;;;;;76.87;36.07;;;17.40;86.20;;;;;;5012858;28;20188;-75
2023/05/23 07:24:08;;;;;;;75.20;37.17;;;17.40;85.90;;;;;;5024956;28;20232;-75
2023/05/23 07:26:34;;;;;;;68.83;37.07;;;17.30;85.70;;;;;;5030906;28;20205;-75
2023/05/23 07:28:59;;;;;;;62.93;33.63;;;17.30;85.60;;;;;;5028759;28;20195;-74
2023/05/23 07:31:25;;;;;;;65.17;35.17;;;17.20;85.00;;;;;;5026783;28;20192;-75
2023/05/23 07:33:50;;;;;;;57.67;31.30;;;16.80;85.70;;;;;;5031192;28;20229;-74
2023/05/23 07:36:16;;;;;;;60.27;31.20;;;16.90;85.50;;;;;;5029220;28;20182;-76
2023/05/23 07:38:42;;;;;;;55.30;28.60;;;16.90;84.90;;;;;;5027844;28;20177;-74
2023/05/23 07:41:07;;;;;;;66.20;31.90;;;16.80;85.00;;;;;;5024402;28;20416;-77
2023/05/23 07:43:33;;;;;;;71.73;33.00;;;16.90;85.20;;;;;;5015941;28;20189;-75
2023/05/23 07:45:59;;;;;;;66.37;33.43;;;17.00;85.00;;;;;;5017279;28;20188;-75
2023/05/23 07:48:26;;;;;;;60.47;32.30;;;17.00;85.00;;;;;;5014454;28;20225;-76
2023/05/23 07:50:53;;;;;;;59.57;31.33;;;17.10;85.00;;;;;;5016561;28;20311;-75
2023/05/23 07:53:20;;;;;;;71.07;36.27;;;17.20;85.20;;;;;;5018090;28;20456;-74
2023/05/23 07:55:46;;;;;;;68.33;33.50;;;17.30;84.40;;;;;;5018007;28;20424;-73
2023/05/23 07:58:11;;;;;;;66.60;33.47;;;17.10;84.40;;;;;;5016504;28;20481;-74
2023/05/23 08:00:37;;;;;;;61.23;31.53;;;17.10;84.00;;;;;;5020442;28;20186;-74
2023/05/23 08:03:03;;;;;;;62.57;31.77;;;17.20;83.80;;;;;;5020272;28;20228;-76
2023/05/23 08:05:29;;;;;;;54.77;27.90;;;17.30;82.70;;;;;;5015105;28;20436;-75
2023/05/23 08:07:54;;;;;;;53.80;29.07;;;17.10;81.10;;;;;;5013357;28;20201;-74
2023/05/23 08:10:20;;;;;;;55.83;26.57;;;17.00;81.40;;;;;;5013924;28;20186;-75
2023/05/23 08:12:46;;;;;;;46.80;26.60;;;16.80;81.70;;;;;;5019034;28;20202;-74
2023/05/23 08:15:11;;;;;;;46.90;24.50;;;16.70;81.50;;;;;;5015951;28;20208;-74
2023/05/23 08:17:37;;;;;;;45.40;25.47;;;16.90;81.70;;;;;;5014009;28;20232;-74
2023/05/23 08:20:04;;;;;;;43.30;22.50;;;16.90;80.90;;;;;;5015943;28;20194;-74
2023/05/23 08:22:29;;;;;;;46.33;25.50;;;16.80;81.40;;;;;;5016967;28;20263;-76
2023/05/23 08:24:55;;;;;;;48.00;25.70;;;17.00;81.10;;;;;;5019060;28;20476;-73
2023/05/23 08:27:20;;;;;;;46.90;24.03;;;17.00;80.90;;;;;;5017239;28;20241;-76
2023/05/23 08:29:46;;;;;;;45.17;24.63;;;17.00;81.10;;;;;;5016719;28;20182;-74
2023/05/23 08:32:12;;;;;;;51.60;25.10;;;17.00;80.80;;;;;;5014708;28;20237;-76
2023/05/23 08:34:38;;;;;;;46.53;25.80;;;16.70;81.20;;;;;;5017281;28;20955;-75
2023/05/23 08:37:05;;;;;;;50.73;24.40;;;16.60;81.20;;;;;;5028938;28;20268;-74
2023/05/23 08:39:31;;;;;;;41.30;23.33;;;16.50;81.10;;;;;;5012339;28;20435;-74
2023/05/23 08:41:57;;;;;;;42.80;22.83;;;16.60;81.10;;;;;;5016692;28;20420;-75
2023/05/23 08:44:22;;;;;;;43.63;22.40;;;16.80;80.50;;;;;;5016401;28;20193;-74
2023/05/23 08:46:52;;;;;;;48.80;22.50;;;16.80;80.20;;;;;;5014982;28;20564;-76
2023/05/23 08:49:18;;;;;;;45.27;24.80;;;16.60;80.90;;;;;;5025150;28;20243;-74
2023/05/23 08:51:45;;;;;;;43.70;23.13;;;16.50;80.80;;;;;;5020054;28;20514;-75
2023/05/23 08:54:14;;;;;;;46.80;22.80;;;16.50;81.10;;;;;;5017750;28;20432;-75
2023/05/23 08:56:40;;;;;;;42.30;22.43;;;16.40;80.90;;;;;;4996415;28;20463;-74
2023/05/23 08:59:08;;;;;;;42.40;22.47;;;16.40;80.80;;;;;;5014552;28;20416;-75
2023/05/23 09:01:34;;;;;;;40.00;23.30;;;16.50;80.20;;;;;;5014837;28;20174;-75
2023/05/23 09:04:03;;;;;;;47.00;24.70;;;16.60;80.20;;;;;;4998389;28;20809;-74
2023/05/23 09:06:29;;;;;;;43.70;22.23;;;16.50;79.90;;;;;;5008533;28;20951;-78
2023/05/23 09:08:55;;;;;;;47.50;24.60;;;16.60;80.20;;;;;;5014932;28;20499;-74
2023/05/23 09:11:23;;;;;;;50.17;23.90;;;16.70;79.90;;;;;;5014537;28;20419;-75
2023/05/23 09:13:48;;;;;;;40.07;20.57;;;16.90;79.50;;;;;;5015767;28;20467;-75
2023/05/23 09:16:16;;;;;;;44.53;23.10;;;16.90;79.30;;;;;;5007863;28;20954;-77
2023/05/23 09:18:43;;;;;;;42.60;23.70;;;16.70;79.90;;;;;;5012830;28;20198;-75
2023/05/23 09:21:10;;;;;;;40.00;22.50;;;16.90;79.30;;;;;;5016896;28;20424;-75
2023/05/23 09:23:38;;;;;;;38.10;20.50;;;17.00;78.60;;;;;;5017525;28;20424;-75
2023/05/23 09:26:06;;;;;;;39.50;22.50;;;17.10;78.30;;;;;;5016859;28;20850;-75
2023/05/23 09:28:33;;;;;;;35.60;20.43;;;16.80;77.70;;;;;;5015168;28;20472;-76
2023/05/23 09:31:03;;;;;;;39.40;20.70;;;16.60;79.60;;;;;;5009658;28;21050;-74
2023/05/23 09:33:42;;;;;;;37.60;21.17;;;16.80;78.90;;;;;;5014547;28;20488;-76
2023/05/23 09:36:08;;;;;;;36.37;21.07;;;16.90;78.30;;;;;;5014806;28;20416;-74
2023/05/23 09:38:38;;;;;;;37.77;19.77;;;16.90;78.30;;;;;;5014017;28;20448;-76
2023/05/23 09:41:04;;;;;;;41.27;20.33;;;16.90;78.40;;;;;;5013461;28;20413;-77
2023/05/23 09:43:30;;;;;;;36.67;20.17;;;17.10;77.80;;;;;;5014648;28;20485;-76
2023/05/23 09:46:07;;;;;;;39.33;18.63;;;17.20;77.10;;;;;;5014821;28;20527;-75
2023/05/23 09:48:32;;;;;;;32.60;17.13;;;17.20;76.70;;;;;;5014416;28;20295;-76
2023/05/23 09:50:58;;;;;;;31.03;18.77;;;17.50;76.10;;;;;;5015369;28;20456;-74
2023/05/23 09:53:24;;;;;;;32.90;18.37;;;17.70;74.80;;;;;;5013740;28;20206;-75
2023/05/23 09:55:54;;;;;;;36.00;19.13;;;17.50;74.60;;;;;;5014804;28;20620;-76
2023/05/23 09:58:22;;;;;;;30.43;17.77;;;17.40;75.50;;;;;;5025756;28;20433;-73
2023/05/23 10:00:55;;;;;;;29.97;16.77;;;17.30;76.10;;;;;;5027703;28;20427;-74
2023/05/23 10:03:29;;;;;;;30.00;17.73;;;17.10;76.20;;;;;;5027314;28;20435;-75
2023/05/23 10:06:07;;;;;;;31.10;18.10;;;17.00;75.90;;;;;;5004659;28;20409;-75
2023/05/23 10:08:42;;;;;;;26.50;15.70;;;17.10;75.70;;;;;;5007113;28;20571;-76
2023/05/23 10:11:15;;;;;;;30.40;17.53;;;17.10;75.80;;;;;;5006335;28;20438;-75
2023/05/23 10:13:43;;;;;;;26.90;15.63;;;17.20;75.40;;;;;;5014050;28;20464;-75
2023/05/23 10:16:38;;;;;;;29.23;16.73;;;17.20;75.10;;;;;;5009546;28;20424;-77
2023/05/23 10:19:20;;;;;;;30.17;16.37;;;17.30;74.20;;;;;;4960825;28;20478;-74
2023/05/23 10:21:49;;;;;;;27.07;15.97;;;17.50;73.60;;;;;;5013206;28;20425;-75
2023/05/23 10:24:16;;;;;;;24.43;15.00;;;17.60;73.60;;;;;;5013240;28;20439;-75
2023/05/23 10:26:43;;;;;;;27.40;14.33;;;17.80;73.30;;;;;;5011433;28;20453;-74
2023/05/23 10:29:09;;;;;;;30.77;15.43;;;18.30;72.10;;;;;;5009460;28;20429;-76
2023/05/23 10:31:35;;;;;;;23.83;15.00;;;18.50;70.70;;;;;;5009633;28;20429;-75
2023/05/23 10:34:30;;;;;;;27.10;14.47;;;18.40;70.70;;;;;;5012898;28;20207;-76
2023/05/23 10:37:05;;;;;;;26.43;15.03;;;18.00;70.40;;;;;;5012305;28;20900;-77
2023/05/23 10:39:51;;;;;;;24.00;13.33;;;18.20;71.30;;;;;;5012434;28;20426;-76
2023/05/23 10:42:25;;;;;;;21.37;13.97;;;18.90;69.40;;;;;;4994127;28;20443;-76
2023/05/23 10:44:50;;;;;;;20.07;12.40;;;18.90;67.70;;;;;;5016810;28;20421;-76
2023/05/23 10:47:28;;;;;;;16.80;11.00;;;18.80;69.10;;;;;;5022390;28;20462;-76
2023/05/23 10:49:54;;;;;;;21.07;12.60;;;18.70;69.50;;;;;;5017364;28;20189;-75
2023/05/23 10:52:22;;;;;;;20.33;12.60;;;18.90;69.20;;;;;;5020723;28;20462;-75
2023/05/23 10:54:53;;;;;;;25.17;13.23;;;18.60;70.10;;;;;;5027131;28;20514;-75
2023/05/23 10:57:21;;;;;;;17.60;12.40;;;18.50;69.90;;;;;;5026029;28;20462;-74
2023/05/23 10:59:49;;;;;;;20.90;12.57;;;18.30;70.50;;;;;;5022319;28;20457;-75
2023/05/23 11:02:17;;;;;;;20.40;12.03;;;18.40;69.50;;;;;;5020234;28;20425;-75
2023/05/23 11:04:43;;;;;;;22.87;12.97;;;18.40;69.90;;;;;;5024596;28;20431;-75
2023/05/23 11:07:29;;;;;;;17.07;11.43;;;18.30;69.90;;;;;;5026542;28;20518;-74
2023/05/23 11:10:12;;;;;;;22.23;13.63;;;18.40;70.40;;;;;;5031082;28;20663;-76
2023/05/23 11:12:43;;;;;;;19.27;13.47;;;18.50;69.20;;;;;;5025958;28;20488;-74
2023/05/23 11:15:19;;;;;;;19.10;10.27;;;18.20;68.90;;;;;;5024750;28;20422;-77
2023/05/23 11:17:55;;;;;;;19.57;12.47;;;18.40;69.10;;;;;;5021881;28;20449;-76
2023/05/23 11:20:26;;;;;;;23.13;12.37;;;18.40;69.10;;;;;;5021671;28;20463;-75
2023/05/23 11:23:02;;;;;;;20.43;11.80;;;18.30;68.90;;;;;;5012163;28;20444;-75
2023/05/23 11:25:47;;;;;;;17.70;11.00;;;18.50;69.10;;;;;;5013337;28;20475;-74
2023/05/23 11:28:13;;;;;;;16.73;11.47;;;18.60;68.80;;;;;;5012748;28;20954;-75
2023/05/23 11:30:39;;;;;;;16.47;10.50;;;19.00;67.00;;;;;;5011540;28;20467;-74
2023/05/23 11:33:08;;;;;;;17.17;11.47;;;19.40;66.10;;;;;;5013285;28;20207;-76
2023/05/23 11:35:36;;;;;;;18.30;11.20;;;19.50;65.70;;;;;;5012808;28;21044;-75
2023/05/23 11:38:05;;;;;;;15.60;11.13;;;19.50;65.60;;;;;;5011367;28;20986;-75
2023/05/23 11:40:32;;;;;;;20.17;12.40;;;19.10;66.60;;;;;;5013100;28;20448;-75
2023/05/23 11:42:59;;;;;;;25.03;12.53;;;19.00;66.70;;;;;;5012501;28;20512;-74
2023/05/23 11:45:26;;;;;;;21.83;12.40;;;18.80;68.00;;;;;;5012546;28;20428;-75
2023/05/23 11:47:52;;;;;;;23.90;13.40;;;18.40;69.20;;;;;;5003166;28;20486;-76
2023/05/23 11:50:21;;;;;;;24.30;14.57;;;18.20;70.20;;;;;;4995554;28;20463;-74
2023/05/23 11:52:50;;;;;;;40.03;14.03;;;18.30;68.80;;;;;;5010045;28;20587;-76
2023/05/23 11:55:20;;;;;;;23.77;13.10;;;18.40;69.40;;;;;;5012184;28;20414;-75
2023/05/23 11:57:46;;;;;;;20.37;13.17;;;18.50;68.60;;;;;;5014352;28;20475;-75
2023/05/23 12:00:12;;;;;;;21.00;12.73;;;18.70;68.30;;;;;;5014817;28;20443;-74
2023/05/23 12:02:43;;;;;;;23.13;11.70;;;18.90;67.50;;;;;;5016400;28;20428;-74
2023/05/23 12:05:09;;;;;;;19.00;11.30;;;19.40;67.00;;;;;;5015909;28;20454;-76
2023/05/23 12:07:39;;;;;;;21.53;12.33;;;19.50;65.40;;;;;;5015209;28;20445;-75
2023/05/23 12:10:05;;;;;;;19.83;12.67;;;19.30;66.10;;;;;;5018042;28;20422;-75
2023/05/23 12:12:31;;;;;;;21.03;13.13;;;19.20;65.80;;;;;;5018334;28;20467;-76
2023/05/23 12:14:57;;;;;;;16.60;11.23;;;19.00;66.00;;;;;;5018895;28;20780;-76
2023/05/23 12:17:23;;;;;;;20.23;12.77;;;19.00;67.00;;;;;;5016801;28;20458;-76
2023/05/23 12:19:49;;;;;;;18.60;12.20;;;19.00;66.70;;;;;;5036000;28;20817;-76
2023/05/23 12:22:21;;;;;;;16.27;10.70;;;19.00;67.30;;;;;;5027799;28;20380;-75
2023/05/23 12:24:46;;;;;;;16.73;11.00;;;18.60;67.30;;;;;;5030625;28;20463;-77
2023/05/23 12:27:12;;;;;;;15.87;10.87;;;18.80;67.20;;;;;;5031654;28;20448;-74